sensor_id;sensor_type;location;lat;lon;timestamp;temperature;humidity
23729;DHT22;12045;60.214;24.724;2023-10-19T00:01:17;2.70;99.90
23729;DHT22;12045;60.214;24.724;2023-10-19T00:03:46;2.40;99.90
23729;DHT22;12045;60.214;24.724;2023-10-19T00:06:18;2.30;99.90
23729;DHT22;12045;60.214;24.724;2023-10-19T00:08:47;2.30;99.90
23729;DHT22;12045;60.214;24.724;2023-10-19T00:11:14;2.80;99.90
23729;DHT22;12045;60.214;24.724;2023-10-19T00:13:53;2.40;99.90
23729;DHT22;12045;60.214;24.724;2023-10-19T00:16:22;2.50;99.90
23729;DHT22;12045;60.214;24.724;2023-10-19T00:18:51;2.40;99.90
23729;DHT22;12045;60.214;24.724;2023-10-19T00:21:19;2.50;99.90
23729;DHT22;12045;60.214;24.724;2023-10-19T00:23:58;2.50;99.90
23729;DHT22;12045;60.214;24.724;2023-10-19T00:26:27;2.50;99.90
23729;DHT22;12045;60.214;24.724;2023-10-19T00:28:57;2.50;99.90
23729;DHT22;12045;60.214;24.724;2023-10-19T00:31:27;3.20;99.90
23729;DHT22;12045;60.214;24.724;2023-10-19T00:33:56;2.40;99.90
23729;DHT22;12045;60.214;24.724;2023-10-19T00:36:24;2.70;99.90
23729;DHT22;12045;60.214;24.724;2023-10-19T00:38:55;2.50;99.90
23729;DHT22;12045;60.214;24.724;2023-10-19T00:41:26;2.30;99.90
23729;DHT22;12045;60.214;24.724;2023-10-19T00:43:59;2.30;99.90
23729;DHT22;12045;60.214;24.724;2023-10-19T00:46:40;2.70;99.90
23729;DHT22;12045;60.214;24.724;2023-10-19T00:49:13;2.20;99.90
23729;DHT22;12045;60.214;24.724;2023-10-19T00:51:52;2.10;99.90
23729;DHT22;12045;60.214;24.724;2023-10-19T00:54:26;2.70;99.90
23729;DHT22;12045;60.214;24.724;2023-10-19T00:57:01;2.10;99.90
23729;DHT22;12045;60.214;24.724;2023-10-19T00:59:40;2.10;99.90
23729;DHT22;12045;60.214;24.724;2023-10-19T01:02:20;2.10;99.90
23729;DHT22;12045;60.214;24.724;2023-10-19T01:04:56;2.60;99.90
23729;DHT22;12045;60.214;24.724;2023-10-19T01:07:29;2.60;99.90
23729;DHT22;12045;60.214;24.724;2023-10-19T01:10:00;2.00;99.90
23729;DHT22;12045;60.214;24.724;2023-10-19T01:12:29;1.90;99.90
23729;DHT22;12045;60.214;24.724;2023-10-19T01:17:37;1.90;99.90
23729;DHT22;12045;60.214;24.724;2023-10-19T01:20:13;1.90;99.90
23729;DHT22;12045;60.214;24.724;2023-10-19T01:22:58;1.90;99.90
23729;DHT22;12045;60.214;24.724;2023-10-19T01:25:44;1.90;99.90
23729;DHT22;12045;60.214;24.724;2023-10-19T01:28:36;2.10;99.90
23729;DHT22;12045;60.214;24.724;2023-10-19T01:31:12;1.80;99.90
23729;DHT22;12045;60.214;24.724;2023-10-19T01:33:59;1.80;99.90
23729;DHT22;12045;60.214;24.724;2023-10-19T01:36:34;2.20;99.90
23729;DHT22;12045;60.214;24.724;2023-10-19T01:39:12;1.70;99.90
23729;DHT22;12045;60.214;24.724;2023-10-19T01:41:41;1.80;99.90
23729;DHT22;12045;60.214;24.724;2023-10-19T01:44:09;2.30;99.90
23729;DHT22;12045;60.214;24.724;2023-10-19T01:46:42;1.90;99.90
23729;DHT22;12045;60.214;24.724;2023-10-19T01:49:14;1.70;99.90
23729;DHT22;12045;60.214;24.724;2023-10-19T01:51:41;1.80;99.90
23729;DHT22;12045;60.214;24.724;2023-10-19T01:54:14;1.90;99.90
23729;DHT22;12045;60.214;24.724;2023-10-19T01:56:44;2.40;99.90
23729;DHT22;12045;60.214;24.724;2023-10-19T01:59:12;1.60;99.90
23729;DHT22;12045;60.214;24.724;2023-10-19T02:01:43;1.70;99.90
23729;DHT22;12045;60.214;24.724;2023-10-19T02:04:14;1.70;99.90
23729;DHT22;12045;60.214;24.724;2023-10-19T02:06:42;2.10;99.90
23729;DHT22;12045;60.214;24.724;2023-10-19T02:09:14;2.00;99.90
23729;DHT22;12045;60.214;24.724;2023-10-19T02:11:42;2.00;99.90
23729;DHT22;12045;60.214;24.724;2023-10-19T02:14:15;2.10;99.90
23729;DHT22;12045;60.214;24.724;2023-10-19T02:16:43;2.00;99.90
23729;DHT22;12045;60.214;24.724;2023-10-19T02:19:13;2.20;99.90
23729;DHT22;12045;60.214;24.724;2023-10-19T02:21:43;2.30;99.90
23729;DHT22;12045;60.214;24.724;2023-10-19T02:24:15;2.00;99.90
23729;DHT22;12045;60.214;24.724;2023-10-19T02:26:44;3.20;99.90
23729;DHT22;12045;60.214;24.724;2023-10-19T02:29:15;2.20;99.90
23729;DHT22;12045;60.214;24.724;2023-10-19T02:31:44;2.40;99.90
23729;DHT22;12045;60.214;24.724;2023-10-19T02:34:12;2.00;99.90
23729;DHT22;12045;60.214;24.724;2023-10-19T02:36:44;2.00;99.90
23729;DHT22;12045;60.214;24.724;2023-10-19T02:39:14;2.50;99.90
23729;DHT22;12045;60.214;24.724;2023-10-19T02:41:45;2.20;99.90
23729;DHT22;12045;60.214;24.724;2023-10-19T02:44:20;1.90;99.90
23729;DHT22;12045;60.214;24.724;2023-10-19T02:46:55;2.10;99.90
23729;DHT22;12045;60.214;24.724;2023-10-19T02:49:28;2.20;99.90
23729;DHT22;12045;60.214;24.724;2023-10-19T02:51:57;1.80;99.90
23729;DHT22;12045;60.214;24.724;2023-10-19T02:54:32;2.30;99.90
23729;DHT22;12045;60.214;24.724;2023-10-19T02:57:03;2.30;99.90
23729;DHT22;12045;60.214;24.724;2023-10-19T02:59:36;2.20;99.90
23729;DHT22;12045;60.214;24.724;2023-10-19T03:02:04;2.60;99.90
23729;DHT22;12045;60.214;24.724;2023-10-19T03:04:45;1.70;99.90
23729;DHT22;12045;60.214;24.724;2023-10-19T03:07:14;2.00;99.90
23729;DHT22;12045;60.214;24.724;2023-10-19T03:09:44;2.30;99.90
23729;DHT22;12045;60.214;24.724;2023-10-19T03:12:21;2.40;99.90
23729;DHT22;12045;60.214;24.724;2023-10-19T03:14:52;2.00;99.90
23729;DHT22;12045;60.214;24.724;2023-10-19T03:17:21;2.60;99.90
23729;DHT22;12045;60.214;24.724;2023-10-19T03:19:49;1.60;99.90
23729;DHT22;12045;60.214;24.724;2023-10-19T03:22:17;1.60;99.90
23729;DHT22;12045;60.214;24.724;2023-10-19T03:24:47;2.10;99.90
23729;DHT22;12045;60.214;24.724;2023-10-19T03:27:25;1.60;99.90
23729;DHT22;12045;60.214;24.724;2023-10-19T03:29:53;1.80;99.90
23729;DHT22;12045;60.214;24.724;2023-10-19T03:32:27;1.90;99.90
23729;DHT22;12045;60.214;24.724;2023-10-19T03:35:00;2.20;99.90
23729;DHT22;12045;60.214;24.724;2023-10-19T03:37:29;2.30;99.90
23729;DHT22;12045;60.214;24.724;2023-10-19T03:39:58;1.50;99.90
23729;DHT22;12045;60.214;24.724;2023-10-19T03:42:26;1.80;99.90
23729;DHT22;12045;60.214;24.724;2023-10-19T03:44:58;1.50;99.90
23729;DHT22;12045;60.214;24.724;2023-10-19T03:47:28;2.20;99.90
23729;DHT22;12045;60.214;24.724;2023-10-19T03:50:03;1.50;99.90
23729;DHT22;12045;60.214;24.724;2023-10-19T03:52:35;1.40;99.90
23729;DHT22;12045;60.214;24.724;2023-10-19T03:55:06;2.60;99.90
23729;DHT22;12045;60.214;24.724;2023-10-19T03:57:39;1.40;99.90
23729;DHT22;12045;60.214;24.724;2023-10-19T04:00:15;1.60;99.90
23729;DHT22;12045;60.214;24.724;2023-10-19T04:02:46;1.40;99.90
23729;DHT22;12045;60.214;24.724;2023-10-19T04:05:14;2.10;99.90
23729;DHT22;12045;60.214;24.724;2023-10-19T04:07:49;1.80;99.90
23729;DHT22;12045;60.214;24.724;2023-10-19T04:10:20;2.40;99.90
23729;DHT22;12045;60.214;24.724;2023-10-19T04:12:58;2.80;99.90
23729;DHT22;12045;60.214;24.724;2023-10-19T04:15:29;1.60;99.90
23729;DHT22;12045;60.214;24.724;2023-10-19T04:17:56;1.90;99.90
23729;DHT22;12045;60.214;24.724;2023-10-19T04:20:27;1.90;99.90
23729;DHT22;12045;60.214;24.724;2023-10-19T04:23:04;1.50;99.90
23729;DHT22;12045;60.214;24.724;2023-10-19T04:25:42;1.30;99.90
23729;DHT22;12045;60.214;24.724;2023-10-19T04:28:12;1.30;99.90
23729;DHT22;12045;60.214;24.724;2023-10-19T04:30:43;2.60;99.90
23729;DHT22;12045;60.214;24.724;2023-10-19T04:33:11;2.60;99.90
23729;DHT22;12045;60.214;24.724;2023-10-19T04:35:40;2.30;99.90
23729;DHT22;12045;60.214;24.724;2023-10-19T04:38:09;2.50;99.90
23729;DHT22;12045;60.214;24.724;2023-10-19T04:40:37;1.40;99.90
23729;DHT22;12045;60.214;24.724;2023-10-19T04:43:04;1.30;99.90
23729;DHT22;12045;60.214;24.724;2023-10-19T04:45:35;1.20;99.90
23729;DHT22;12045;60.214;24.724;2023-10-19T04:48:07;1.20;99.90
23729;DHT22;12045;60.214;24.724;2023-10-19T04:50:37;1.50;99.90
23729;DHT22;12045;60.214;24.724;2023-10-19T04:53:07;1.70;99.90
23729;DHT22;12045;60.214;24.724;2023-10-19T04:55:36;2.00;99.90
23729;DHT22;12045;60.214;24.724;2023-10-19T04:58:04;1.20;99.90
23729;DHT22;12045;60.214;24.724;2023-10-19T05:00:34;2.60;99.90
23729;DHT22;12045;60.214;24.724;2023-10-19T05:03:03;1.60;99.90
23729;DHT22;12045;60.214;24.724;2023-10-19T05:05:31;1.10;99.90
23729;DHT22;12045;60.214;24.724;2023-10-19T05:08:00;1.40;99.90
23729;DHT22;12045;60.214;24.724;2023-10-19T05:10:27;2.10;99.90
23729;DHT22;12045;60.214;24.724;2023-10-19T05:12:57;1.90;99.90
23729;DHT22;12045;60.214;24.724;2023-10-19T05:15:27;2.20;99.90
23729;DHT22;12045;60.214;24.724;2023-10-19T05:17:56;2.30;99.90
23729;DHT22;12045;60.214;24.724;2023-10-19T05:20:26;1.30;99.90
23729;DHT22;12045;60.214;24.724;2023-10-19T05:22:54;1.80;99.90
23729;DHT22;12045;60.214;24.724;2023-10-19T05:25:23;1.70;99.90
23729;DHT22;12045;60.214;24.724;2023-10-19T05:27:51;1.40;99.90
23729;DHT22;12045;60.214;24.724;2023-10-19T05:30:19;2.40;99.90
23729;DHT22;12045;60.214;24.724;2023-10-19T05:32:51;1.30;99.90
23729;DHT22;12045;60.214;24.724;2023-10-19T05:35:18;1.30;99.90
23729;DHT22;12045;60.214;24.724;2023-10-19T05:37:52;1.80;99.90
23729;DHT22;12045;60.214;24.724;2023-10-19T05:40:19;2.10;99.90
23729;DHT22;12045;60.214;24.724;2023-10-19T05:42:47;1.30;99.90
23729;DHT22;12045;60.214;24.724;2023-10-19T05:45:15;1.30;99.90
23729;DHT22;12045;60.214;24.724;2023-10-19T05:47:43;1.30;99.90
23729;DHT22;12045;60.214;24.724;2023-10-19T05:50:12;2.20;99.90
23729;DHT22;12045;60.214;24.724;2023-10-19T05:52:43;1.70;99.90
23729;DHT22;12045;60.214;24.724;2023-10-19T05:55:11;1.70;99.90
23729;DHT22;12045;60.214;24.724;2023-10-19T05:57:40;1.80;99.90
23729;DHT22;12045;60.214;24.724;2023-10-19T06:00:11;1.30;99.90
23729;DHT22;12045;60.214;24.724;2023-10-19T06:02:45;1.30;99.90
23729;DHT22;12045;60.214;24.724;2023-10-19T06:05:13;2.00;99.90
23729;DHT22;12045;60.214;24.724;2023-10-19T06:07:46;1.60;99.90
23729;DHT22;12045;60.214;24.724;2023-10-19T06:10:16;1.70;99.90
23729;DHT22;12045;60.214;24.724;2023-10-19T06:12:46;2.30;99.90
23729;DHT22;12045;60.214;24.724;2023-10-19T06:15:14;2.60;99.90
23729;DHT22;12045;60.214;24.724;2023-10-19T06:17:43;2.20;99.90
23729;DHT22;12045;60.214;24.724;2023-10-19T06:20:14;2.10;99.90
23729;DHT22;12045;60.214;24.724;2023-10-19T06:23:02;1.40;99.90
23729;DHT22;12045;60.214;24.724;2023-10-19T06:25:33;1.40;99.90
23729;DHT22;12045;60.214;24.724;2023-10-19T06:28:05;1.30;99.90
23729;DHT22;12045;60.214;24.724;2023-10-19T06:30:33;1.30;99.90
23729;DHT22;12045;60.214;24.724;2023-10-19T06:33:02;1.90;99.90
23729;DHT22;12045;60.214;24.724;2023-10-19T06:35:31;1.40;99.90
23729;DHT22;12045;60.214;24.724;2023-10-19T06:38:01;1.40;99.90
23729;DHT22;12045;60.214;24.724;2023-10-19T06:40:30;1.40;99.90
23729;DHT22;12045;60.214;24.724;2023-10-19T06:42:58;2.50;99.90
23729;DHT22;12045;60.214;24.724;2023-10-19T06:45:27;1.70;99.90
23729;DHT22;12045;60.214;24.724;2023-10-19T06:47:58;1.60;99.90
23729;DHT22;12045;60.214;24.724;2023-10-19T06:50:28;1.80;99.90
23729;DHT22;12045;60.214;24.724;2023-10-19T06:52:57;1.40;99.90
23729;DHT22;12045;60.214;24.724;2023-10-19T06:55:25;2.00;99.90
23729;DHT22;12045;60.214;24.724;2023-10-19T06:57:53;1.60;99.90
23729;DHT22;12045;60.214;24.724;2023-10-19T07:00:24;2.00;99.90
23729;DHT22;12045;60.214;24.724;2023-10-19T07:02:57;1.50;99.90
23729;DHT22;12045;60.214;24.724;2023-10-19T07:05:30;1.70;99.90
23729;DHT22;12045;60.214;24.724;2023-10-19T07:07:58;1.60;99.90
23729;DHT22;12045;60.214;24.724;2023-10-19T07:10:28;2.00;99.90
23729;DHT22;12045;60.214;24.724;2023-10-19T07:12:58;1.50;99.90
23729;DHT22;12045;60.214;24.724;2023-10-19T07:15:26;1.70;99.90
23729;DHT22;12045;60.214;24.724;2023-10-19T07:17:55;1.90;99.90
23729;DHT22;12045;60.214;24.724;2023-10-19T07:20:24;2.20;99.90
23729;DHT22;12045;60.214;24.724;2023-10-19T07:23:05;2.50;99.90
23729;DHT22;12045;60.214;24.724;2023-10-19T07:25:50;2.00;99.90
23729;DHT22;12045;60.214;24.724;2023-10-19T07:28:28;2.30;99.90
23729;DHT22;12045;60.214;24.724;2023-10-19T07:30:56;2.10;99.90
23729;DHT22;12045;60.214;24.724;2023-10-19T07:33:25;1.90;99.90
23729;DHT22;12045;60.214;24.724;2023-10-19T07:35:54;2.10;99.90
23729;DHT22;12045;60.214;24.724;2023-10-19T07:38:25;2.30;99.90
23729;DHT22;12045;60.214;24.724;2023-10-19T07:40:55;2.60;99.90
23729;DHT22;12045;60.214;24.724;2023-10-19T07:43:24;1.80;99.90
23729;DHT22;12045;60.214;24.724;2023-10-19T07:45:53;1.70;99.90
23729;DHT22;12045;60.214;24.724;2023-10-19T07:48:23;2.60;99.90
23729;DHT22;12045;60.214;24.724;2023-10-19T07:50:52;2.50;99.90
23729;DHT22;12045;60.214;24.724;2023-10-19T07:53:22;1.90;99.90
23729;DHT22;12045;60.214;24.724;2023-10-19T07:55:53;2.00;99.90
23729;DHT22;12045;60.214;24.724;2023-10-19T07:58:21;3.10;99.90
23729;DHT22;12045;60.214;24.724;2023-10-19T08:00:50;2.10;99.90
23729;DHT22;12045;60.214;24.724;2023-10-19T08:03:20;2.10;99.90
23729;DHT22;12045;60.214;24.724;2023-10-19T08:05:49;2.40;99.90
23729;DHT22;12045;60.214;24.724;2023-10-19T08:08:17;2.20;99.90
23729;DHT22;12045;60.214;24.724;2023-10-19T08:10:46;2.30;99.90
23729;DHT22;12045;60.214;24.724;2023-10-19T08:13:14;2.20;99.90
23729;DHT22;12045;60.214;24.724;2023-10-19T08:15:42;2.70;99.90
23729;DHT22;12045;60.214;24.724;2023-10-19T08:18:11;2.60;99.90
23729;DHT22;12045;60.214;24.724;2023-10-19T08:20:42;2.30;99.90
23729;DHT22;12045;60.214;24.724;2023-10-19T08:23:13;2.40;99.90
23729;DHT22;12045;60.214;24.724;2023-10-19T08:25:42;3.00;99.90
23729;DHT22;12045;60.214;24.724;2023-10-19T08:28:24;2.80;99.90
23729;DHT22;12045;60.214;24.724;2023-10-19T08:30:53;2.90;99.90
23729;DHT22;12045;60.214;24.724;2023-10-19T08:33:25;2.70;99.90
23729;DHT22;12045;60.214;24.724;2023-10-19T08:35:54;2.40;99.90
23729;DHT22;12045;60.214;24.724;2023-10-19T08:38:23;2.80;99.90
23729;DHT22;12045;60.214;24.724;2023-10-19T08:40:51;2.20;99.90
23729;DHT22;12045;60.214;24.724;2023-10-19T08:43:23;2.20;99.90
23729;DHT22;12045;60.214;24.724;2023-10-19T08:45:54;2.40;99.90
23729;DHT22;12045;60.214;24.724;2023-10-19T08:48:23;2.50;99.90
23729;DHT22;12045;60.214;24.724;2023-10-19T08:50:51;2.50;99.90
23729;DHT22;12045;60.214;24.724;2023-10-19T08:53:21;2.30;99.90
23729;DHT22;12045;60.214;24.724;2023-10-19T08:55:49;2.80;99.90
23729;DHT22;12045;60.214;24.724;2023-10-19T08:58:19;2.60;99.90
23729;DHT22;12045;60.214;24.724;2023-10-19T09:00:49;2.60;99.90
23729;DHT22;12045;60.214;24.724;2023-10-19T09:03:19;2.60;99.90
23729;DHT22;12045;60.214;24.724;2023-10-19T09:05:48;2.90;99.90
23729;DHT22;12045;60.214;24.724;2023-10-19T09:08:17;2.60;99.90
23729;DHT22;12045;60.214;24.724;2023-10-19T09:10:47;3.00;99.90
23729;DHT22;12045;60.214;24.724;2023-10-19T09:13:17;2.80;99.90
23729;DHT22;12045;60.214;24.724;2023-10-19T09:15:52;2.80;99.90
23729;DHT22;12045;60.214;24.724;2023-10-19T09:18:25;2.70;99.90
23729;DHT22;12045;60.214;24.724;2023-10-19T09:20:56;2.80;99.90
23729;DHT22;12045;60.214;24.724;2023-10-19T09:23:35;2.80;99.90
23729;DHT22;12045;60.214;24.724;2023-10-19T09:26:05;2.80;99.90
23729;DHT22;12045;60.214;24.724;2023-10-19T09:28:37;2.80;99.90
23729;DHT22;12045;60.214;24.724;2023-10-19T09:31:06;3.00;99.90
23729;DHT22;12045;60.214;24.724;2023-10-19T09:33:40;2.90;99.90
23729;DHT22;12045;60.214;24.724;2023-10-19T09:36:10;3.20;99.90
23729;DHT22;12045;60.214;24.724;2023-10-19T09:38:49;3.00;99.90
23729;DHT22;12045;60.214;24.724;2023-10-19T09:41:20;3.90;99.90
23729;DHT22;12045;60.214;24.724;2023-10-19T09:43:50;3.10;99.90
23729;DHT22;12045;60.214;24.724;2023-10-19T09:46:31;3.10;99.90
23729;DHT22;12045;60.214;24.724;2023-10-19T09:49:00;3.20;99.90
23729;DHT22;12045;60.214;24.724;2023-10-19T09:51:29;3.20;99.90
23729;DHT22;12045;60.214;24.724;2023-10-19T09:54:22;3.20;99.90
23729;DHT22;12045;60.214;24.724;2023-10-19T09:57:02;3.40;99.90
23729;DHT22;12045;60.214;24.724;2023-10-19T09:59:38;3.30;99.90
23729;DHT22;12045;60.214;24.724;2023-10-19T10:02:11;3.50;99.90
23729;DHT22;12045;60.214;24.724;2023-10-19T10:04:43;3.50;99.90
23729;DHT22;12045;60.214;24.724;2023-10-19T10:07:17;3.50;99.90
23729;DHT22;12045;60.214;24.724;2023-10-19T10:10:06;4.10;99.90
23729;DHT22;12045;60.214;24.724;2023-10-19T10:12:34;3.40;99.90
23729;DHT22;12045;60.214;24.724;2023-10-19T10:15:05;3.50;99.90
23729;DHT22;12045;60.214;24.724;2023-10-19T10:17:38;3.60;99.90
23729;DHT22;12045;60.214;24.724;2023-10-19T10:23:16;4.30;99.90
23729;DHT22;12045;60.214;24.724;2023-10-19T10:25:46;3.70;99.90
23729;DHT22;12045;60.214;24.724;2023-10-19T10:28:18;3.70;99.90
23729;DHT22;12045;60.214;24.724;2023-10-19T10:31:22;3.80;99.90
23729;DHT22;12045;60.214;24.724;2023-10-19T10:33:52;3.70;99.90
23729;DHT22;12045;60.214;24.724;2023-10-19T10:36:22;3.70;99.90
23729;DHT22;12045;60.214;24.724;2023-10-19T10:39:02;4.60;99.90
23729;DHT22;12045;60.214;24.724;2023-10-19T10:41:32;3.70;99.90
23729;DHT22;12045;60.214;24.724;2023-10-19T10:44:02;4.20;99.90
23729;DHT22;12045;60.214;24.724;2023-10-19T10:46:33;3.70;99.90
23729;DHT22;12045;60.214;24.724;2023-10-19T10:49:00;3.90;99.90
23729;DHT22;12045;60.214;24.724;2023-10-19T10:51:30;4.00;99.90
23729;DHT22;12045;60.214;24.724;2023-10-19T10:53:59;3.80;99.90
23729;DHT22;12045;60.214;24.724;2023-10-19T10:56:27;3.90;99.90
23729;DHT22;12045;60.214;24.724;2023-10-19T10:58:56;3.30;99.90
23729;DHT22;12045;60.214;24.724;2023-10-19T11:01:31;4.30;99.90
23729;DHT22;12045;60.214;24.724;2023-10-19T11:04:08;3.90;99.90
23729;DHT22;12045;60.214;24.724;2023-10-19T11:06:52;3.90;99.90
23729;DHT22;12045;60.214;24.724;2023-10-19T11:09:23;3.90;99.90
23729;DHT22;12045;60.214;24.724;2023-10-19T11:11:52;3.90;99.90
23729;DHT22;12045;60.214;24.724;2023-10-19T11:14:22;4.00;99.90
23729;DHT22;12045;60.214;24.724;2023-10-19T11:16:54;3.90;99.90
23729;DHT22;12045;60.214;24.724;2023-10-19T11:19:38;4.00;99.90
23729;DHT22;12045;60.214;24.724;2023-10-19T11:22:11;4.00;99.90
23729;DHT22;12045;60.214;24.724;2023-10-19T11:24:40;4.10;99.90
23729;DHT22;12045;60.214;24.724;2023-10-19T11:27:07;3.80;99.90
23729;DHT22;12045;60.214;24.724;2023-10-19T11:29:38;4.30;99.90
23729;DHT22;12045;60.214;24.724;2023-10-19T11:32:05;3.80;99.90
23729;DHT22;12045;60.214;24.724;2023-10-19T11:34:34;4.00;99.90
23729;DHT22;12045;60.214;24.724;2023-10-19T11:37:02;4.10;99.90
23729;DHT22;12045;60.214;24.724;2023-10-19T11:39:34;3.90;99.90
23729;DHT22;12045;60.214;24.724;2023-10-19T11:42:01;3.90;99.90
23729;DHT22;12045;60.214;24.724;2023-10-19T11:44:30;3.90;99.90
23729;DHT22;12045;60.214;24.724;2023-10-19T11:47:00;4.10;99.90
23729;DHT22;12045;60.214;24.724;2023-10-19T11:49:29;3.80;99.90
23729;DHT22;12045;60.214;24.724;2023-10-19T11:51:56;4.30;99.90
23729;DHT22;12045;60.214;24.724;2023-10-19T11:54:24;4.00;99.90
23729;DHT22;12045;60.214;24.724;2023-10-19T11:56:53;3.90;99.90
23729;DHT22;12045;60.214;24.724;2023-10-19T11:59:22;4.00;99.90
23729;DHT22;12045;60.214;24.724;2023-10-19T12:01:50;4.10;99.90
23729;DHT22;12045;60.214;24.724;2023-10-19T12:04:19;4.00;99.90
23729;DHT22;12045;60.214;24.724;2023-10-19T12:06:48;4.00;99.90
23729;DHT22;12045;60.214;24.724;2023-10-19T12:09:15;4.10;99.90
23729;DHT22;12045;60.214;24.724;2023-10-19T12:11:45;3.30;99.90
23729;DHT22;12045;60.214;24.724;2023-10-19T12:14:15;3.90;99.90
23729;DHT22;12045;60.214;24.724;2023-10-19T12:16:44;3.90;99.90
23729;DHT22;12045;60.214;24.724;2023-10-19T12:19:13;3.80;99.90
23729;DHT22;12045;60.214;24.724;2023-10-19T12:21:47;4.10;99.90
23729;DHT22;12045;60.214;24.724;2023-10-19T12:24:17;4.40;99.90
23729;DHT22;12045;60.214;24.724;2023-10-19T12:26:47;4.30;99.90
23729;DHT22;12045;60.214;24.724;2023-10-19T12:29:20;4.20;99.90
23729;DHT22;12045;60.214;24.724;2023-10-19T12:31:49;4.10;99.90
23729;DHT22;12045;60.214;24.724;2023-10-19T12:34:18;5.10;99.90
23729;DHT22;12045;60.214;24.724;2023-10-19T12:36:48;4.10;99.90
23729;DHT22;12045;60.214;24.724;2023-10-19T12:39:19;4.40;99.90
23729;DHT22;12045;60.214;24.724;2023-10-19T12:42:06;4.20;99.90
23729;DHT22;12045;60.214;24.724;2023-10-19T12:44:35;4.30;99.90
23729;DHT22;12045;60.214;24.724;2023-10-19T12:47:10;4.50;99.90
23729;DHT22;12045;60.214;24.724;2023-10-19T12:49:42;4.40;99.90
23729;DHT22;12045;60.214;24.724;2023-10-19T12:52:13;4.80;99.90
23729;DHT22;12045;60.214;24.724;2023-10-19T12:54:43;4.40;99.90
23729;DHT22;12045;60.214;24.724;2023-10-19T12:57:12;4.40;99.90
23729;DHT22;12045;60.214;24.724;2023-10-19T12:59:41;4.30;99.90
23729;DHT22;12045;60.214;24.724;2023-10-19T13:02:10;4.30;99.90
23729;DHT22;12045;60.214;24.724;2023-10-19T13:04:42;4.30;99.90
23729;DHT22;12045;60.214;24.724;2023-10-19T13:07:14;4.10;99.90
23729;DHT22;12045;60.214;24.724;2023-10-19T13:09:42;4.50;99.90
23729;DHT22;12045;60.214;24.724;2023-10-19T13:12:13;4.30;99.90
23729;DHT22;12045;60.214;24.724;2023-10-19T13:14:44;4.20;99.90
23729;DHT22;12045;60.214;24.724;2023-10-19T13:17:11;4.30;99.90
23729;DHT22;12045;60.214;24.724;2023-10-19T13:19:40;4.30;99.90
23729;DHT22;12045;60.214;24.724;2023-10-19T13:22:08;4.40;99.90
23729;DHT22;12045;60.214;24.724;2023-10-19T13:24:36;5.00;99.90
23729;DHT22;12045;60.214;24.724;2023-10-19T13:27:10;4.50;99.90
23729;DHT22;12045;60.214;24.724;2023-10-19T13:29:40;4.50;99.90
23729;DHT22;12045;60.214;24.724;2023-10-19T13:32:09;4.60;99.90
23729;DHT22;12045;60.214;24.724;2023-10-19T13:34:38;4.70;99.90
23729;DHT22;12045;60.214;24.724;2023-10-19T13:37:08;4.60;99.90
23729;DHT22;12045;60.214;24.724;2023-10-19T13:39:37;4.70;99.90
23729;DHT22;12045;60.214;24.724;2023-10-19T13:42:06;4.70;99.90
23729;DHT22;12045;60.214;24.724;2023-10-19T13:44:36;4.50;99.90
23729;DHT22;12045;60.214;24.724;2023-10-19T13:47:06;4.60;99.90
23729;DHT22;12045;60.214;24.724;2023-10-19T13:49:37;5.40;99.90
23729;DHT22;12045;60.214;24.724;2023-10-19T13:52:04;4.70;99.90
23729;DHT22;12045;60.214;24.724;2023-10-19T13:54:33;4.70;99.90
23729;DHT22;12045;60.214;24.724;2023-10-19T13:57:03;4.60;99.90
23729;DHT22;12045;60.214;24.724;2023-10-19T13:59:31;4.70;99.90
23729;DHT22;12045;60.214;24.724;2023-10-19T14:02:02;4.60;99.90
23729;DHT22;12045;60.214;24.724;2023-10-19T14:04:33;5.30;99.90
23729;DHT22;12045;60.214;24.724;2023-10-19T14:07:00;4.40;99.90
23729;DHT22;12045;60.214;24.724;2023-10-19T14:09:30;5.00;99.90
23729;DHT22;12045;60.214;24.724;2023-10-19T14:12:00;4.40;99.90
23729;DHT22;12045;60.214;24.724;2023-10-19T14:14:33;4.70;99.90
23729;DHT22;12045;60.214;24.724;2023-10-19T14:17:00;4.20;99.90
23729;DHT22;12045;60.214;24.724;2023-10-19T14:19:28;4.40;99.90
23729;DHT22;12045;60.214;24.724;2023-10-19T14:22:00;4.10;99.90
23729;DHT22;12045;60.214;24.724;2023-10-19T14:24:29;4.20;99.90
23729;DHT22;12045;60.214;24.724;2023-10-19T14:26:57;4.70;99.90
23729;DHT22;12045;60.214;24.724;2023-10-19T14:29:27;4.10;99.90
23729;DHT22;12045;60.214;24.724;2023-10-19T14:31:55;4.10;99.90
23729;DHT22;12045;60.214;24.724;2023-10-19T14:34:24;4.30;99.90
23729;DHT22;12045;60.214;24.724;2023-10-19T14:36:54;4.30;99.90
23729;DHT22;12045;60.214;24.724;2023-10-19T14:39:22;4.10;99.90
23729;DHT22;12045;60.214;24.724;2023-10-19T14:41:52;4.30;99.90
23729;DHT22;12045;60.214;24.724;2023-10-19T14:44:19;4.10;99.90
23729;DHT22;12045;60.214;24.724;2023-10-19T14:46:46;4.00;99.90
23729;DHT22;12045;60.214;24.724;2023-10-19T14:49:18;4.20;99.90
23729;DHT22;12045;60.214;24.724;2023-10-19T14:51:46;4.20;99.90
23729;DHT22;12045;60.214;24.724;2023-10-19T14:54:14;3.40;99.90
23729;DHT22;12045;60.214;24.724;2023-10-19T14:56:43;4.90;99.90
23729;DHT22;12045;60.214;24.724;2023-10-19T14:59:10;4.30;99.90
23729;DHT22;12045;60.214;24.724;2023-10-19T15:01:38;4.40;99.90
23729;DHT22;12045;60.214;24.724;2023-10-19T15:04:06;4.20;99.90
23729;DHT22;12045;60.214;24.724;2023-10-19T15:06:35;4.30;99.90
23729;DHT22;12045;60.214;24.724;2023-10-19T15:09:06;4.50;99.90
23729;DHT22;12045;60.214;24.724;2023-10-19T15:11:43;4.10;99.90
23729;DHT22;12045;60.214;24.724;2023-10-19T15:14:12;4.70;99.90
23729;DHT22;12045;60.214;24.724;2023-10-19T15:16:40;4.30;99.90
23729;DHT22;12045;60.214;24.724;2023-10-19T15:19:08;4.30;99.90
23729;DHT22;12045;60.214;24.724;2023-10-19T15:21:40;4.50;99.90
23729;DHT22;12045;60.214;24.724;2023-10-19T15:24:09;4.30;99.90
23729;DHT22;12045;60.214;24.724;2023-10-19T15:26:39;4.10;99.90
23729;DHT22;12045;60.214;24.724;2023-10-19T15:29:07;4.10;99.90
23729;DHT22;12045;60.214;24.724;2023-10-19T15:31:35;4.20;99.90
23729;DHT22;12045;60.214;24.724;2023-10-19T15:34:04;4.00;99.90
23729;DHT22;12045;60.214;24.724;2023-10-19T15:36:32;4.10;99.90
23729;DHT22;12045;60.214;24.724;2023-10-19T15:39:01;5.00;99.90
23729;DHT22;12045;60.214;24.724;2023-10-19T15:41:29;4.20;99.90
23729;DHT22;12045;60.214;24.724;2023-10-19T15:43:58;4.30;99.90
23729;DHT22;12045;60.214;24.724;2023-10-19T15:46:29;4.10;99.90
23729;DHT22;12045;60.214;24.724;2023-10-19T15:48:58;4.10;99.90
23729;DHT22;12045;60.214;24.724;2023-10-19T15:51:27;4.10;99.90
23729;DHT22;12045;60.214;24.724;2023-10-19T15:53:54;4.20;99.90
23729;DHT22;12045;60.214;24.724;2023-10-19T15:56:23;4.10;99.90
23729;DHT22;12045;60.214;24.724;2023-10-19T15:58:55;4.10;99.90